createdAt,value
2022-10-16T00:00:22.641Z,19.58
2022-10-16T00:01:22.792Z,19.56
2022-10-16T00:02:23.063Z,19.58
2022-10-16T00:03:26.634Z,19.63
2022-10-16T00:04:24.331Z,19.63
2022-10-16T00:05:23.510Z,19.66
2022-10-16T00:06:23.708Z,19.67
2022-10-16T00:07:24.136Z,19.67
2022-10-16T00:08:24.022Z,19.69
2022-10-16T00:09:24.182Z,19.70
2022-10-16T00:10:24.371Z,19.71
2022-10-16T00:11:24.530Z,19.73
2022-10-16T00:12:24.999Z,19.73
2022-10-16T00:13:24.870Z,19.74
2022-10-16T00:14:25.031Z,19.73
2022-10-16T00:15:25.191Z,19.74
2022-10-16T00:16:25.380Z,19.79
2022-10-16T00:17:25.559Z,19.79
2022-10-16T00:18:25.744Z,19.79
2022-10-16T00:19:25.891Z,19.77
2022-10-16T00:20:26.100Z,19.79
2022-10-16T00:21:26.240Z,19.81
2022-10-16T00:22:26.813Z,19.81
2022-10-16T00:23:26.622Z,19.81
2022-10-16T00:24:26.781Z,19.84
2022-10-16T00:25:26.973Z,19.82
2022-10-16T00:26:27.169Z,19.82
2022-10-16T00:27:27.343Z,19.85
2022-10-16T00:28:27.551Z,19.86
2022-10-16T00:29:27.692Z,19.88
2022-10-16T00:30:27.857Z,19.89
2022-10-16T00:31:28.025Z,19.89
2022-10-16T00:32:28.502Z,19.91
2022-10-16T00:33:28.371Z,19.92
2022-10-16T00:34:28.552Z,19.92
2022-10-16T00:35:28.741Z,19.94
2022-10-16T00:36:28.922Z,19.94
2022-10-16T00:37:29.082Z,19.94
2022-10-16T00:38:29.272Z,19.95
2022-10-16T00:39:29.461Z,19.96
2022-10-16T00:40:29.621Z,19.96
2022-10-16T00:41:29.784Z,19.96
2022-10-16T00:42:29.947Z,19.99
2022-10-16T00:43:30.103Z,19.99
2022-10-16T00:44:30.294Z,19.99
2022-10-16T00:45:30.454Z,19.99
2022-10-16T00:46:30.634Z,19.99
2022-10-16T00:47:30.793Z,19.99
2022-10-16T00:48:30.953Z,19.95
2022-10-16T00:49:31.113Z,19.95
2022-10-16T00:50:31.274Z,19.92
2022-10-16T00:51:31.474Z,19.91
2022-10-16T00:52:31.634Z,19.92
2022-10-16T00:53:31.791Z,19.92
2022-10-16T00:54:31.983Z,19.92
2022-10-16T00:55:32.146Z,19.92
2022-10-16T00:56:32.324Z,19.91
2022-10-16T00:57:32.474Z,19.91
2022-10-16T00:58:32.673Z,19.92
2022-10-16T00:59:32.825Z,19.94
2022-10-16T01:00:33.021Z,19.95
2022-10-16T01:01:33.270Z,19.91
2022-10-16T01:02:33.394Z,19.91
2022-10-16T01:03:33.554Z,19.89
2022-10-16T01:04:33.713Z,19.89
2022-10-16T01:05:33.864Z,19.91
2022-10-16T01:06:34.075Z,19.89
2022-10-16T01:07:34.235Z,19.89
2022-10-16T01:08:34.394Z,19.85
2022-10-16T01:09:34.556Z,19.86
2022-10-16T01:10:34.715Z,19.84
2022-10-16T01:11:34.915Z,19.82
2022-10-16T01:12:38.606Z,19.84
2022-10-16T01:13:35.244Z,19.81
2022-10-16T01:14:35.434Z,19.77
2022-10-16T01:15:35.634Z,19.76
2022-10-16T01:16:35.809Z,19.76
2022-10-16T01:17:35.945Z,19.74
2022-10-16T01:18:36.136Z,19.71
2022-10-16T01:19:36.292Z,19.70
2022-10-16T01:20:36.476Z,19.67
2022-10-16T01:21:36.657Z,19.64
2022-10-16T01:22:36.816Z,19.63
2022-10-16T01:23:36.976Z,19.62
2022-10-16T01:24:37.176Z,19.56
2022-10-16T01:25:37.317Z,19.55
2022-10-16T01:26:37.515Z,19.55
2022-10-16T01:27:37.676Z,19.52
2022-10-16T01:28:37.927Z,19.49
2022-10-16T01:29:38.006Z,19.49
2022-10-16T01:30:38.203Z,19.47
2022-10-16T01:31:38.387Z,19.45
2022-10-16T01:32:38.526Z,19.44
2022-10-16T01:33:38.677Z,19.41
2022-10-16T01:34:38.877Z,19.41
2022-10-16T01:35:39.026Z,19.37
2022-10-16T01:36:39.247Z,19.36
2022-10-16T01:37:39.397Z,19.37
2022-10-16T01:38:39.597Z,19.37
2022-10-16T01:39:39.747Z,19.34
2022-10-16T01:40:39.907Z,19.37
2022-10-16T01:41:40.086Z,19.37
2022-10-16T01:42:40.246Z,19.36
2022-10-16T01:43:40.428Z,19.36
2022-10-16T01:44:40.588Z,19.36
2022-10-16T01:45:40.747Z,19.40
2022-10-16T01:46:40.955Z,19.40
2022-10-16T01:47:41.107Z,19.40
2022-10-16T01:48:41.311Z,19.41
2022-10-16T01:49:41.467Z,19.45
2022-10-16T01:50:41.631Z,19.45
2022-10-16T01:51:41.797Z,19.45
2022-10-16T01:52:41.958Z,19.45
2022-10-16T01:53:42.122Z,19.44
2022-10-16T01:54:42.308Z,19.45
2022-10-16T01:55:42.467Z,19.47
2022-10-16T01:56:42.653Z,19.49
2022-10-16T01:57:42.810Z,19.49
2022-10-16T01:58:42.989Z,19.48
2022-10-16T01:59:43.150Z,19.48
2022-10-16T02:00:43.391Z,19.49
2022-10-16T02:01:43.536Z,19.54
2022-10-16T02:02:43.697Z,19.54
2022-10-16T02:03:43.878Z,19.54
2022-10-16T02:04:44.070Z,19.55
2022-10-16T02:05:44.229Z,19.58
2022-10-16T02:06:44.409Z,19.58
2022-10-16T02:07:44.559Z,19.58
2022-10-16T02:08:44.749Z,19.63
2022-10-16T02:09:44.898Z,19.64
2022-10-16T02:10:45.090Z,19.64
2022-10-16T02:11:45.268Z,19.64
2022-10-16T02:12:45.430Z,19.67
2022-10-16T02:13:45.586Z,19.69
2022-10-16T02:14:45.746Z,19.70
2022-10-16T02:15:45.929Z,19.71
2022-10-16T02:16:46.089Z,19.71
2022-10-16T02:17:46.239Z,19.70
2022-10-16T02:18:46.421Z,19.71
2022-10-16T02:19:46.579Z,19.71
2022-10-16T02:20:46.789Z,19.73
2022-10-16T02:21:46.941Z,19.71
2022-10-16T02:22:47.103Z,19.73
2022-10-16T02:23:47.256Z,19.74
2022-10-16T02:24:47.449Z,19.74
2022-10-16T02:25:47.618Z,19.73
2022-10-16T02:26:47.779Z,19.71
2022-10-16T02:27:47.959Z,19.70
2022-10-16T02:28:48.184Z,19.70
2022-10-16T02:29:48.330Z,19.69
2022-10-16T02:30:48.540Z,19.66
2022-10-16T02:31:48.699Z,19.66
2022-10-16T02:32:48.889Z,19.66
2022-10-16T02:33:49.078Z,19.66
2022-10-16T02:34:49.240Z,19.67
2022-10-16T02:35:49.420Z,19.67
2022-10-16T02:36:49.580Z,19.69
2022-10-16T02:37:49.739Z,19.69
2022-10-16T02:38:49.910Z,19.70
2022-10-16T02:39:50.059Z,19.71
2022-10-16T02:40:50.271Z,19.71
2022-10-16T02:41:50.430Z,19.71
2022-10-16T02:42:50.589Z,19.74
2022-10-16T02:43:50.740Z,19.71
2022-10-16T02:44:50.930Z,19.71
2022-10-16T02:45:51.100Z,19.69
2022-10-16T02:46:51.268Z,19.69
2022-10-16T02:47:51.420Z,19.69
2022-10-16T02:48:51.616Z,19.69
2022-10-16T02:49:51.769Z,19.66
2022-10-16T02:50:51.971Z,19.66
2022-10-16T02:51:52.131Z,19.64
2022-10-16T02:52:52.292Z,19.63
2022-10-16T02:53:52.482Z,19.62
2022-10-16T02:54:52.641Z,19.63
2022-10-16T02:55:52.818Z,19.63
2022-10-16T02:56:52.979Z,19.62
2022-10-16T02:57:53.145Z,19.62
2022-10-16T02:58:53.304Z,19.59
2022-10-16T02:59:53.470Z,19.62
2022-10-16T03:00:53.688Z,19.55
2022-10-16T03:01:53.820Z,19.54
2022-10-16T03:02:53.982Z,19.52
2022-10-16T03:03:54.173Z,19.51
2022-10-16T03:04:54.340Z,19.49
2022-10-16T03:05:54.500Z,19.48
2022-10-16T03:06:54.663Z,19.47
2022-10-16T03:07:54.812Z,19.45
2022-10-16T03:08:55.011Z,19.45
2022-10-16T03:09:55.190Z,19.41
2022-10-16T03:10:55.351Z,19.39
2022-10-16T03:11:55.511Z,19.39
2022-10-16T03:12:55.671Z,19.34
2022-10-16T03:13:55.832Z,19.34
2022-10-16T03:14:56.002Z,19.31
2022-10-16T03:15:56.162Z,19.30
2022-10-16T03:16:56.372Z,19.30
2022-10-16T03:17:56.530Z,19.29
2022-10-16T03:18:56.691Z,19.27
2022-10-16T03:19:56.861Z,19.24
2022-10-16T03:20:57.022Z,19.24
2022-10-16T03:21:57.182Z,19.21
2022-10-16T03:22:57.342Z,19.19
2022-10-16T03:23:57.502Z,19.18
2022-10-16T03:24:57.672Z,19.18
2022-10-16T03:25:57.832Z,19.18
2022-10-16T03:26:58.023Z,19.16
2022-10-16T03:27:58.182Z,19.16
2022-10-16T03:28:58.407Z,19.14
2022-10-16T03:29:58.532Z,19.15
2022-10-16T03:30:58.696Z,19.14
2022-10-16T03:31:58.852Z,19.14
2022-10-16T03:32:59.013Z,19.14
2022-10-16T03:33:59.177Z,19.15
2022-10-16T03:34:59.352Z,19.12
2022-10-16T03:35:59.514Z,19.12
2022-10-16T03:36:59.672Z,19.12
2022-10-16T03:37:59.834Z,19.11
2022-10-16T03:39:00.023Z,19.09
2022-10-16T03:40:00.193Z,19.09
2022-10-16T03:41:00.352Z,19.09
2022-10-16T03:42:00.504Z,19.12
2022-10-16T03:43:00.703Z,19.11
2022-10-16T03:44:00.875Z,19.11
2022-10-16T03:45:01.041Z,19.09
2022-10-16T03:46:01.193Z,19.08
2022-10-16T03:47:01.352Z,19.09
2022-10-16T03:48:01.513Z,19.09
2022-10-16T03:49:03.017Z,19.09
2022-10-16T03:50:01.891Z,19.12
2022-10-16T03:51:02.083Z,19.14
2022-10-16T03:52:02.245Z,19.11
2022-10-16T03:53:02.403Z,19.12
2022-10-16T03:54:02.576Z,19.15
2022-10-16T03:55:02.733Z,19.15
2022-10-16T03:56:02.883Z,19.15
2022-10-16T03:57:03.084Z,19.15
2022-10-16T03:58:03.243Z,19.12
2022-10-16T03:59:03.423Z,19.11
2022-10-16T04:00:03.583Z,19.09
2022-10-16T04:01:03.778Z,19.12
2022-10-16T04:02:03.913Z,19.12
2022-10-16T04:03:04.069Z,19.14
2022-10-16T04:04:04.273Z,19.12
2022-10-16T04:05:04.435Z,19.14
2022-10-16T04:06:04.593Z,19.16
2022-10-16T04:07:04.751Z,19.16
2022-10-16T04:08:04.944Z,19.15
2022-10-16T04:09:05.114Z,19.16
2022-10-16T04:10:05.275Z,19.15
2022-10-16T04:11:05.436Z,19.15
2022-10-16T04:12:05.594Z,19.14
2022-10-16T04:13:05.754Z,19.14
2022-10-16T04:14:05.952Z,19.11
2022-10-16T04:15:06.093Z,19.12
2022-10-16T04:16:06.274Z,19.12
2022-10-16T04:17:06.424Z,19.12
2022-10-16T04:18:06.594Z,19.12
2022-10-16T04:19:07.218Z,19.11
2022-10-16T04:20:06.947Z,19.12
2022-10-16T04:21:07.112Z,19.11
2022-10-16T04:22:07.303Z,19.12
2022-10-16T04:23:07.457Z,19.11
2022-10-16T04:24:07.665Z,19.09
2022-10-16T04:25:07.824Z,19.09
2022-10-16T04:26:07.986Z,19.11
2022-10-16T04:27:08.145Z,19.09
2022-10-16T04:28:08.305Z,19.09
2022-10-16T04:29:08.476Z,19.11
2022-10-16T04:30:08.645Z,19.08
2022-10-16T04:31:08.806Z,19.08
2022-10-16T04:32:08.967Z,19.07
2022-10-16T04:33:09.133Z,19.04
2022-10-16T04:34:09.305Z,19.04
2022-10-16T04:35:09.457Z,19.04
2022-10-16T04:36:09.617Z,19.02
2022-10-16T04:37:09.777Z,18.99
2022-10-16T04:38:09.967Z,18.93
2022-10-16T04:39:10.144Z,18.89
2022-10-16T04:40:10.305Z,18.86
2022-10-16T04:41:10.465Z,18.86
2022-10-16T04:42:10.627Z,18.84
2022-10-16T04:43:10.784Z,18.84
2022-10-16T04:44:10.966Z,18.84
2022-10-16T04:45:13.491Z,18.81
2022-10-16T04:46:12.306Z,18.80
2022-10-16T04:47:11.487Z,18.81
2022-10-16T04:48:11.676Z,18.81
2022-10-16T04:49:11.846Z,18.80
2022-10-16T04:50:12.015Z,18.80
2022-10-16T04:51:12.165Z,18.80
2022-10-16T04:52:12.351Z,18.80
2022-10-16T04:53:12.497Z,18.78
2022-10-16T04:54:12.707Z,18.77
2022-10-16T04:55:12.866Z,18.77
2022-10-16T04:56:13.057Z,18.78
2022-10-16T04:57:13.207Z,18.78
2022-10-16T04:58:13.437Z,18.75
2022-10-16T04:59:13.566Z,18.77
2022-10-16T05:00:13.758Z,18.77
2022-10-16T05:01:13.907Z,18.77
2022-10-16T05:02:14.069Z,18.78
2022-10-16T05:03:14.298Z,18.77
2022-10-16T05:04:14.410Z,18.80
2022-10-16T05:05:14.559Z,18.78
2022-10-16T05:06:14.756Z,18.81
2022-10-16T05:07:14.917Z,18.81
2022-10-16T05:08:15.098Z,18.81
2022-10-16T05:09:15.258Z,18.81
2022-10-16T05:10:15.432Z,18.83
2022-10-16T05:11:15.576Z,18.84
2022-10-16T05:12:15.744Z,18.84
2022-10-16T05:13:15.917Z,18.84
2022-10-16T05:14:16.083Z,18.86
2022-10-16T05:15:16.237Z,18.84
2022-10-16T05:16:16.409Z,18.84
2022-10-16T05:17:16.596Z,18.84
2022-10-16T05:18:16.769Z,18.83
2022-10-16T05:19:32.393Z,18.84
2022-10-16T05:20:18.117Z,18.81
2022-10-16T05:21:17.290Z,18.81
2022-10-16T05:22:17.469Z,18.80
2022-10-16T05:23:17.651Z,18.78
2022-10-16T05:24:17.835Z,18.80
2022-10-16T05:25:18.007Z,18.78
2022-10-16T05:26:18.188Z,18.77
2022-10-16T05:27:18.371Z,18.75
2022-10-16T05:28:18.632Z,18.75
2022-10-16T05:29:18.717Z,18.74
2022-10-16T05:30:18.897Z,18.74
2022-10-16T05:31:19.078Z,18.74
2022-10-16T05:32:19.259Z,18.71
2022-10-16T05:33:19.471Z,18.71
2022-10-16T05:34:19.639Z,18.70
2022-10-16T05:35:19.798Z,18.71
2022-10-16T05:36:19.987Z,18.70
2022-10-16T05:37:20.138Z,18.68
2022-10-16T05:38:20.329Z,18.68
2022-10-16T05:39:20.518Z,18.65
2022-10-16T05:40:20.688Z,18.66
2022-10-16T05:41:20.828Z,18.66
2022-10-16T05:42:21.008Z,18.66
2022-10-16T05:43:21.228Z,18.65
2022-10-16T05:44:21.426Z,18.63
2022-10-16T05:45:21.541Z,18.66
2022-10-16T05:46:21.739Z,18.66
2022-10-16T05:47:21.879Z,18.68
2022-10-16T05:48:22.088Z,18.66
2022-10-16T05:49:22.230Z,18.68
2022-10-16T05:50:22.415Z,18.70
2022-10-16T05:51:22.598Z,18.71
2022-10-16T05:52:22.778Z,18.71
2022-10-16T05:53:22.979Z,18.71
2022-10-16T05:54:23.162Z,18.73
2022-10-16T05:55:23.348Z,18.73
2022-10-16T05:56:23.520Z,18.74
2022-10-16T05:57:23.808Z,18.74
2022-10-16T05:58:23.889Z,18.75
2022-10-16T05:59:24.059Z,18.78
2022-10-16T06:00:24.237Z,18.78
2022-10-16T06:01:24.484Z,18.80
2022-10-16T06:02:24.590Z,18.80
2022-10-16T06:03:24.789Z,18.81
2022-10-16T06:04:24.959Z,18.84
2022-10-16T06:05:25.109Z,18.84
2022-10-16T06:06:25.289Z,18.86
2022-10-16T06:07:25.823Z,18.89
2022-10-16T06:08:25.653Z,18.89
2022-10-16T06:09:25.790Z,18.90
2022-10-16T06:10:25.960Z,18.93
2022-10-16T06:11:26.149Z,18.93
2022-10-16T06:12:26.340Z,18.98
2022-10-16T06:13:26.512Z,18.99
2022-10-16T06:14:26.692Z,19.00
2022-10-16T06:15:26.840Z,19.04
2022-10-16T06:16:27.018Z,19.04
2022-10-16T06:17:27.599Z,19.07
2022-10-16T06:18:27.401Z,19.08
2022-10-16T06:19:27.540Z,19.07
2022-10-16T06:20:27.728Z,19.08
2022-10-16T06:21:27.898Z,19.08
2022-10-16T06:22:28.090Z,19.09
2022-10-16T06:23:28.258Z,19.11
2022-10-16T06:24:28.430Z,19.11
2022-10-16T06:25:28.611Z,19.12
2022-10-16T06:26:28.791Z,19.12
2022-10-16T06:27:29.244Z,19.15
2022-10-16T06:28:29.210Z,19.18
2022-10-16T06:29:29.321Z,19.18
2022-10-16T06:30:29.502Z,19.18
2022-10-16T06:31:29.681Z,19.18
2022-10-16T06:32:29.864Z,19.19
2022-10-16T06:33:30.061Z,19.22
2022-10-16T06:34:30.241Z,19.22
2022-10-16T06:35:30.429Z,19.26
2022-10-16T06:36:30.612Z,19.26
2022-10-16T06:37:30.761Z,19.30
2022-10-16T06:38:30.952Z,19.30
2022-10-16T06:39:31.111Z,19.33
2022-10-16T06:40:31.282Z,19.36
2022-10-16T06:41:31.440Z,19.39
2022-10-16T06:42:31.625Z,19.40
2022-10-16T06:43:31.821Z,19.41
2022-10-16T06:44:31.991Z,19.45
2022-10-16T06:45:32.171Z,19.47
2022-10-16T06:46:32.360Z,19.51
2022-10-16T06:47:32.532Z,19.52
2022-10-16T06:48:32.754Z,19.52
2022-10-16T06:49:32.882Z,19.55
2022-10-16T06:50:33.073Z,19.56
2022-10-16T06:51:33.252Z,19.59
2022-10-16T06:52:33.452Z,19.64
2022-10-16T06:53:39.461Z,19.66
2022-10-16T06:54:42.051Z,19.70
2022-10-16T06:55:34.973Z,19.76
2022-10-16T06:56:34.166Z,19.79
2022-10-16T06:57:34.342Z,19.84
2022-10-16T06:58:34.533Z,19.89
2022-10-16T06:59:34.684Z,19.95
2022-10-16T07:00:34.863Z,20.06
2022-10-16T07:01:35.042Z,20.13
2022-10-16T07:02:35.221Z,20.22
2022-10-16T07:03:35.413Z,20.32
2022-10-16T07:04:35.580Z,20.41
2022-10-16T07:05:35.742Z,20.48
2022-10-16T07:06:35.923Z,20.58
2022-10-16T07:07:36.107Z,20.65
2022-10-16T07:08:36.307Z,20.74
2022-10-16T07:09:36.523Z,20.82
2022-10-16T07:10:36.636Z,20.88
2022-10-16T07:11:36.805Z,20.99
2022-10-16T07:12:36.991Z,21.00
2022-10-16T07:13:37.174Z,21.03
2022-10-16T07:14:37.354Z,21.06
2022-10-16T07:15:37.534Z,21.11
2022-10-16T07:16:37.722Z,21.17
2022-10-16T07:17:37.896Z,21.21
2022-10-16T07:18:38.085Z,21.25
2022-10-16T07:19:38.235Z,21.33
2022-10-16T07:20:38.404Z,21.42
2022-10-16T07:21:38.587Z,21.45
2022-10-16T07:22:38.776Z,21.52
2022-10-16T07:23:38.945Z,21.52
2022-10-16T07:24:39.095Z,21.51
2022-10-16T07:25:39.276Z,21.52
2022-10-16T07:26:39.454Z,21.54
2022-10-16T07:27:39.643Z,21.57
2022-10-16T07:28:39.918Z,21.60
2022-10-16T07:29:39.976Z,21.61
2022-10-16T07:30:40.164Z,21.62
2022-10-16T07:31:40.363Z,21.64
2022-10-16T07:32:40.548Z,21.66
2022-10-16T07:33:40.715Z,21.66
2022-10-16T07:34:40.875Z,21.67
2022-10-16T07:35:41.016Z,21.66
2022-10-16T07:37:41.366Z,21.67
2022-10-16T07:38:41.553Z,21.67
2022-10-16T07:39:41.732Z,21.67
2022-10-16T07:40:41.930Z,21.66
2022-10-16T07:41:42.087Z,21.66
2022-10-16T07:42:42.274Z,21.67
2022-10-16T07:43:42.471Z,21.69
2022-10-16T07:44:42.606Z,21.67
2022-10-16T07:45:42.826Z,21.66
2022-10-16T07:46:42.958Z,21.67
2022-10-16T07:47:43.135Z,21.66
2022-10-16T07:48:43.343Z,21.66
2022-10-16T07:49:43.506Z,21.64
2022-10-16T07:50:43.686Z,21.66
2022-10-16T07:51:43.887Z,21.66
2022-10-16T07:52:44.058Z,21.64
2022-10-16T07:53:44.249Z,21.70
2022-10-16T07:54:44.445Z,21.70
2022-10-16T07:55:44.571Z,21.72
2022-10-16T07:56:44.749Z,21.75
2022-10-16T07:57:44.927Z,21.76
2022-10-16T07:58:45.117Z,21.77
2022-10-16T07:59:45.310Z,21.85
2022-10-16T08:00:45.486Z,21.92
2022-10-16T08:01:45.704Z,21.96
2022-10-16T08:02:45.857Z,22.00
2022-10-16T08:03:46.050Z,22.08
2022-10-16T08:04:46.198Z,22.14
2022-10-16T08:05:46.378Z,22.18
2022-10-16T08:06:46.574Z,22.22
2022-10-16T08:07:46.749Z,22.30
2022-10-16T08:08:46.949Z,22.36
2022-10-16T08:09:47.110Z,22.39
2022-10-16T08:10:47.327Z,22.47
2022-10-16T08:11:47.458Z,22.50
2022-10-16T08:12:47.638Z,22.55
2022-10-16T08:13:47.828Z,22.62
2022-10-16T08:14:47.969Z,22.68
2022-10-16T08:15:48.149Z,22.72
2022-10-16T08:16:48.329Z,22.80
2022-10-16T08:17:48.508Z,22.84
2022-10-16T08:18:48.718Z,22.88
2022-10-16T08:19:48.882Z,22.94
2022-10-16T08:20:49.049Z,22.98
2022-10-16T08:21:49.229Z,23.00
2022-10-16T08:22:49.399Z,23.06
2022-10-16T08:23:53.103Z,23.08
2022-10-16T08:24:50.742Z,23.10
2022-10-16T08:25:49.920Z,23.09
2022-10-16T08:26:50.100Z,23.09
2022-10-16T08:27:50.289Z,23.13
2022-10-16T08:28:50.531Z,23.15
2022-10-16T08:29:50.640Z,23.20
2022-10-16T08:30:50.821Z,23.23
2022-10-16T08:31:51.012Z,23.20
2022-10-16T08:32:51.190Z,23.10
2022-10-16T08:33:51.389Z,23.06
2022-10-16T08:34:51.550Z,23.03
2022-10-16T08:35:51.741Z,23.00
2022-10-16T08:36:51.882Z,22.98
2022-10-16T08:37:52.072Z,22.96
2022-10-16T08:38:52.221Z,22.98
2022-10-16T08:39:52.401Z,23.00
2022-10-16T08:40:53.752Z,23.06
2022-10-16T08:41:52.761Z,23.10
2022-10-16T08:42:52.939Z,23.15
2022-10-16T08:43:53.131Z,23.21
2022-10-16T08:44:53.301Z,23.28
2022-10-16T08:45:53.482Z,23.32
2022-10-16T08:46:53.662Z,23.37
2022-10-16T08:47:53.842Z,23.41
2022-10-16T08:48:54.040Z,23.40
2022-10-16T08:49:54.202Z,23.40
2022-10-16T08:50:54.383Z,23.43
2022-10-16T08:51:54.562Z,23.47
2022-10-16T08:52:54.733Z,23.50
2022-10-16T08:53:54.942Z,23.54
2022-10-16T08:54:55.085Z,23.59
2022-10-16T08:55:55.263Z,23.68
2022-10-16T08:56:55.435Z,24.02
2022-10-16T08:57:55.601Z,24.39
2022-10-16T08:58:59.892Z,24.84
2022-10-16T08:59:56.933Z,25.36
2022-10-16T09:00:56.153Z,25.58
2022-10-16T09:01:56.283Z,25.58
2022-10-16T09:02:56.442Z,25.58
2022-10-16T09:03:56.616Z,25.60
2022-10-16T09:04:57.014Z,25.66
2022-10-16T09:05:56.936Z,25.69
2022-10-16T09:06:57.104Z,25.75
2022-10-16T09:07:57.335Z,25.85
2022-10-16T09:08:57.475Z,25.95
2022-10-16T09:09:57.644Z,26.36
2022-10-16T09:10:57.812Z,26.71
2022-10-16T09:11:57.974Z,26.85
2022-10-16T09:12:58.134Z,27.02
2022-10-16T09:13:58.335Z,27.20
2022-10-16T09:14:58.477Z,27.20
2022-10-16T09:15:58.645Z,26.97
2022-10-16T09:16:58.912Z,26.81
2022-10-16T09:17:59.001Z,26.93
2022-10-16T09:18:59.186Z,27.51
2022-10-16T09:19:59.355Z,27.78
2022-10-16T09:20:59.516Z,27.80
2022-10-16T09:21:59.706Z,27.90
2022-10-16T09:22:59.875Z,28.27
2022-10-16T09:24:00.088Z,29.01
2022-10-16T09:25:00.238Z,29.39
2022-10-16T09:26:00.441Z,29.20
2022-10-16T09:27:00.617Z,28.81
2022-10-16T09:28:00.778Z,28.45
2022-10-16T09:29:01.031Z,28.23
2022-10-16T09:30:01.128Z,27.96
2022-10-16T09:31:01.318Z,27.80
2022-10-16T09:32:01.498Z,27.78
2022-10-16T09:33:01.668Z,28.00
2022-10-16T09:34:01.850Z,28.29
2022-10-16T09:35:02.019Z,28.51
2022-10-16T09:36:02.208Z,28.60
2022-10-16T09:37:02.389Z,28.60
2022-10-16T09:38:02.549Z,28.52
2022-10-16T09:39:02.730Z,28.35
2022-10-16T09:40:05.325Z,28.10
2022-10-16T09:41:03.568Z,27.86
2022-10-16T09:42:03.219Z,27.65
2022-10-16T09:43:03.349Z,27.44
2022-10-16T09:44:03.554Z,27.26
2022-10-16T09:45:03.708Z,27.10
2022-10-16T09:46:03.879Z,26.95
2022-10-16T09:47:04.050Z,26.84
2022-10-16T09:48:04.231Z,26.75
2022-10-16T09:49:04.433Z,26.70
2022-10-16T09:50:04.598Z,26.65
2022-10-16T09:51:04.780Z,26.60
2022-10-16T09:52:04.961Z,26.60
2022-10-16T09:53:05.131Z,26.56
2022-10-16T09:54:05.352Z,26.52
2022-10-16T09:55:05.491Z,26.36
2022-10-16T09:56:09.147Z,26.21
2022-10-16T09:57:06.852Z,25.95
2022-10-16T09:58:06.044Z,25.83
2022-10-16T09:59:06.234Z,25.73
2022-10-16T10:00:06.402Z,25.70
2022-10-16T10:01:06.562Z,25.70
2022-10-16T10:02:06.744Z,25.83
2022-10-16T10:03:06.905Z,25.93
2022-10-16T10:04:07.090Z,26.00
2022-10-16T10:05:07.255Z,26.10
2022-10-16T10:06:07.530Z,26.16
2022-10-16T10:07:07.577Z,26.10
2022-10-16T10:08:07.743Z,26.10
2022-10-16T10:09:07.935Z,26.16
2022-10-16T10:10:08.074Z,26.22
2022-10-16T10:11:10.621Z,26.28
2022-10-16T10:12:09.445Z,26.34
2022-10-16T10:13:08.595Z,26.37
2022-10-16T10:14:08.795Z,26.38
2022-10-16T10:15:08.983Z,26.40
2022-10-16T10:16:09.173Z,26.41
2022-10-16T10:17:09.335Z,26.38
2022-10-16T10:18:09.525Z,26.37
2022-10-16T10:19:09.777Z,26.37
2022-10-16T10:20:09.876Z,26.37
2022-10-16T10:21:10.056Z,26.34
2022-10-16T10:22:10.280Z,26.29
2022-10-16T10:23:10.426Z,26.23
2022-10-16T10:24:10.598Z,26.23
2022-10-16T10:25:10.779Z,26.22
2022-10-16T10:26:10.906Z,26.16
2022-10-16T10:27:11.066Z,26.16
2022-10-16T10:28:11.217Z,26.19
2022-10-16T10:29:11.437Z,26.21
2022-10-16T10:30:11.618Z,26.23
2022-10-16T10:31:11.751Z,26.23
2022-10-16T10:32:11.927Z,26.26
2022-10-16T10:33:12.107Z,26.28
2022-10-16T10:34:12.300Z,26.26
2022-10-16T10:35:12.467Z,26.29
2022-10-16T10:36:12.649Z,26.26
2022-10-16T10:37:12.819Z,26.23
2022-10-16T10:38:13.018Z,26.23
2022-10-16T10:39:13.214Z,26.22
2022-10-16T10:40:13.347Z,26.21
2022-10-16T10:41:13.518Z,26.22
2022-10-16T10:42:13.721Z,26.21
2022-10-16T10:43:13.849Z,26.19
2022-10-16T10:44:14.087Z,26.19
2022-10-16T10:45:14.189Z,26.19
2022-10-16T10:46:14.378Z,26.19
2022-10-16T10:47:14.559Z,26.19
2022-10-16T10:48:14.797Z,26.21
2022-10-16T10:49:14.920Z,26.23
2022-10-16T10:50:15.196Z,26.23
2022-10-16T10:51:15.241Z,26.19
2022-10-16T10:52:15.421Z,26.18
2022-10-16T10:53:15.594Z,26.09
2022-10-16T10:54:15.800Z,26.02
2022-10-16T10:55:15.931Z,26.00
2022-10-16T10:56:16.110Z,25.99
2022-10-16T10:57:16.290Z,26.00
2022-10-16T10:58:16.470Z,26.05
2022-10-16T10:59:16.672Z,26.13
2022-10-16T11:00:16.845Z,26.19
2022-10-16T11:01:17.065Z,26.29
2022-10-16T11:02:17.291Z,26.33
2022-10-16T11:03:17.351Z,26.40
2022-10-16T11:04:17.585Z,26.44
2022-10-16T11:05:17.682Z,26.47
2022-10-16T11:06:17.862Z,26.51
2022-10-16T11:07:18.042Z,26.53
2022-10-16T11:08:18.221Z,26.59
2022-10-16T11:09:18.412Z,26.59
2022-10-16T11:10:18.582Z,26.59
2022-10-16T11:11:18.763Z,26.59
2022-10-16T11:12:18.946Z,26.56
2022-10-16T11:13:19.125Z,26.58
2022-10-16T11:14:19.322Z,26.59
2022-10-16T11:15:19.485Z,26.56
2022-10-16T11:16:21.546Z,26.55
2022-10-16T11:17:19.826Z,26.51
2022-10-16T11:18:20.012Z,26.48
2022-10-16T11:19:20.195Z,26.51
2022-10-16T11:20:20.335Z,26.51
2022-10-16T11:21:20.514Z,26.48
2022-10-16T11:22:20.695Z,26.44
2022-10-16T11:23:20.889Z,26.37
2022-10-16T11:24:21.074Z,26.36
2022-10-16T11:25:21.235Z,26.29
2022-10-16T11:26:21.418Z,26.25
2022-10-16T11:27:21.595Z,26.22
2022-10-16T11:28:21.935Z,26.21
2022-10-16T11:29:21.945Z,26.15
2022-10-16T11:30:22.137Z,26.13
2022-10-16T11:31:22.306Z,26.07
2022-10-16T11:32:22.495Z,26.05
2022-10-16T11:33:22.697Z,25.99
2022-10-16T11:34:22.849Z,25.95
2022-10-16T11:35:23.017Z,25.87
2022-10-16T11:36:23.208Z,25.84
2022-10-16T11:37:23.389Z,25.78
2022-10-16T11:38:23.618Z,25.75
2022-10-16T11:39:23.758Z,25.70
2022-10-16T11:40:23.927Z,25.65
2022-10-16T11:41:24.107Z,25.55
2022-10-16T11:42:24.267Z,25.51
2022-10-16T11:43:24.447Z,25.44
2022-10-16T11:44:24.652Z,25.38
2022-10-16T11:45:24.798Z,25.33
2022-10-16T11:46:24.978Z,25.28
2022-10-16T11:47:46.743Z,25.25
2022-10-16T11:48:26.373Z,25.21
2022-10-16T11:49:25.529Z,25.13
2022-10-16T11:50:25.698Z,25.10
2022-10-16T11:51:25.892Z,25.07
2022-10-16T11:52:26.072Z,25.06
2022-10-16T11:53:26.262Z,25.04
2022-10-16T11:54:26.439Z,25.04
2022-10-16T11:55:26.639Z,24.98
2022-10-16T11:56:26.809Z,24.95
2022-10-16T11:57:27.313Z,24.93
2022-10-16T11:58:27.179Z,24.91
2022-10-16T11:59:27.349Z,24.91
2022-10-16T12:00:27.520Z,24.88
2022-10-16T12:01:27.705Z,24.86
2022-10-16T12:02:28.178Z,24.85
2022-10-16T12:03:28.104Z,24.84
2022-10-16T12:04:28.242Z,24.77
2022-10-16T12:05:28.421Z,24.76
2022-10-16T12:06:28.601Z,24.70
2022-10-16T12:07:28.780Z,24.69
2022-10-16T12:08:28.983Z,24.65
2022-10-16T12:09:29.138Z,24.60
2022-10-16T12:10:29.337Z,24.54
2022-10-16T12:11:29.476Z,24.48
2022-10-16T12:12:31.735Z,24.47
2022-10-16T12:13:29.823Z,24.42
2022-10-16T12:14:29.982Z,24.40
2022-10-16T12:15:47.403Z,24.39
2022-10-16T12:16:31.352Z,24.36
2022-10-16T12:17:30.552Z,24.32
2022-10-16T12:18:30.722Z,24.35
2022-10-16T12:19:30.902Z,24.36
2022-10-16T12:20:31.083Z,24.36
2022-10-16T12:21:31.280Z,24.32
2022-10-16T12:22:31.463Z,24.35
2022-10-16T12:23:31.625Z,24.35
2022-10-16T12:24:31.792Z,24.33
2022-10-16T12:25:31.963Z,24.35
2022-10-16T12:26:32.156Z,24.35
2022-10-16T12:27:32.335Z,24.38
2022-10-16T12:28:32.613Z,24.39
2022-10-16T12:29:32.677Z,24.40
2022-10-16T12:30:35.712Z,24.38
2022-10-16T12:31:33.025Z,24.39
2022-10-16T12:32:48.841Z,24.42
2022-10-16T12:33:34.397Z,24.43
2022-10-16T12:34:33.536Z,24.45
2022-10-16T12:35:33.724Z,24.43
2022-10-16T12:36:33.897Z,24.47
2022-10-16T12:37:34.115Z,24.48
2022-10-16T12:38:34.244Z,24.51
2022-10-16T12:39:34.450Z,24.53
2022-10-16T12:40:34.614Z,24.55
2022-10-16T12:41:34.808Z,24.55
2022-10-16T12:42:34.998Z,24.57
2022-10-16T12:43:35.126Z,24.58
2022-10-16T12:44:35.335Z,24.58
2022-10-16T12:45:35.466Z,24.57
2022-10-16T12:46:35.635Z,24.55
2022-10-16T12:47:35.836Z,24.53
2022-10-16T12:48:49.088Z,24.50
2022-10-16T12:49:37.229Z,24.48
2022-10-16T12:50:36.380Z,24.50
2022-10-16T12:51:36.568Z,24.47
2022-10-16T12:52:36.715Z,24.43
2022-10-16T12:53:36.888Z,24.39
2022-10-16T12:54:37.075Z,24.39
2022-10-16T12:55:37.237Z,24.39